sensor_id;sensor_type;location;lat;lon;timestamp;P1;durP1;ratioP1;P2;durP2;ratioP2
18881;SDS011;9573;50.948;11.600;2022-07-22T00:01:28;14.67;;;5.90;;
18881;SDS011;9573;50.948;11.600;2022-07-22T00:03:55;15.43;;;6.07;;
18881;SDS011;9573;50.948;11.600;2022-07-22T00:06:23;15.70;;;6.10;;
18881;SDS011;9573;50.948;11.600;2022-07-22T00:08:50;14.10;;;6.10;;
18881;SDS011;9573;50.948;11.600;2022-07-22T00:11:17;14.57;;;6.07;;
18881;SDS011;9573;50.948;11.600;2022-07-22T00:13:44;13.83;;;6.30;;
18881;SDS011;9573;50.948;11.600;2022-07-22T00:16:12;14.17;;;6.20;;
18881;SDS011;9573;50.948;11.600;2022-07-22T00:18:41;14.70;;;6.20;;
18881;SDS011;9573;50.948;11.600;2022-07-22T00:21:08;15.03;;;6.30;;
18881;SDS011;9573;50.948;11.600;2022-07-22T00:23:35;16.00;;;6.50;;
18881;SDS011;9573;50.948;11.600;2022-07-22T00:26:03;15.00;;;6.40;;
18881;SDS011;9573;50.948;11.600;2022-07-22T00:28:30;17.40;;;6.50;;
18881;SDS011;9573;50.948;11.600;2022-07-22T00:30:57;14.53;;;6.27;;
18881;SDS011;9573;50.948;11.600;2022-07-22T00:33:24;14.40;;;6.47;;
18881;SDS011;9573;50.948;11.600;2022-07-22T00:35:53;15.90;;;6.27;;
18881;SDS011;9573;50.948;11.600;2022-07-22T00:38:20;19.33;;;6.60;;
18881;SDS011;9573;50.948;11.600;2022-07-22T00:40:47;15.00;;;6.53;;
18881;SDS011;9573;50.948;11.600;2022-07-22T00:43:14;13.23;;;5.97;;
18881;SDS011;9573;50.948;11.600;2022-07-22T00:45:41;14.87;;;6.10;;
18881;SDS011;9573;50.948;11.600;2022-07-22T00:48:08;15.73;;;6.70;;
18881;SDS011;9573;50.948;11.600;2022-07-22T00:50:36;17.87;;;6.83;;
18881;SDS011;9573;50.948;11.600;2022-07-22T00:53:04;16.73;;;7.03;;
18881;SDS011;9573;50.948;11.600;2022-07-22T00:55:32;22.80;;;10.03;;
18881;SDS011;9573;50.948;11.600;2022-07-22T00:58:01;16.83;;;6.67;;
18881;SDS011;9573;50.948;11.600;2022-07-22T01:00:43;16.57;;;6.87;;
18881;SDS011;9573;50.948;11.600;2022-07-22T01:03:11;15.43;;;6.83;;
18881;SDS011;9573;50.948;11.600;2022-07-22T01:05:38;16.93;;;6.90;;
18881;SDS011;9573;50.948;11.600;2022-07-22T01:08:07;16.97;;;6.67;;
18881;SDS011;9573;50.948;11.600;2022-07-22T01:13:32;14.50;;;6.60;;
18881;SDS011;9573;50.948;11.600;2022-07-22T01:15:59;14.57;;;6.57;;
18881;SDS011;9573;50.948;11.600;2022-07-22T01:18:27;13.83;;;6.33;;
18881;SDS011;9573;50.948;11.600;2022-07-22T01:20:55;15.67;;;6.80;;
18881;SDS011;9573;50.948;11.600;2022-07-22T01:23:22;18.50;;;7.47;;
18881;SDS011;9573;50.948;11.600;2022-07-22T01:25:50;17.13;;;6.67;;
18881;SDS011;9573;50.948;11.600;2022-07-22T01:28:17;16.53;;;6.90;;
18881;SDS011;9573;50.948;11.600;2022-07-22T01:30:44;14.53;;;6.40;;
18881;SDS011;9573;50.948;11.600;2022-07-22T01:33:12;17.23;;;7.10;;
18881;SDS011;9573;50.948;11.600;2022-07-22T01:35:39;15.17;;;6.63;;
18881;SDS011;9573;50.948;11.600;2022-07-22T01:38:07;16.43;;;6.60;;
18881;SDS011;9573;50.948;11.600;2022-07-22T01:40:34;14.67;;;6.50;;
18881;SDS011;9573;50.948;11.600;2022-07-22T01:43:02;13.47;;;6.40;;
18881;SDS011;9573;50.948;11.600;2022-07-22T01:45:29;13.43;;;6.50;;
18881;SDS011;9573;50.948;11.600;2022-07-22T01:47:56;18.77;;;6.97;;
18881;SDS011;9573;50.948;11.600;2022-07-22T01:50:23;16.50;;;6.70;;
18881;SDS011;9573;50.948;11.600;2022-07-22T01:52:51;17.57;;;6.33;;
18881;SDS011;9573;50.948;11.600;2022-07-22T01:55:19;15.30;;;6.97;;
18881;SDS011;9573;50.948;11.600;2022-07-22T01:57:47;15.20;;;6.90;;
18881;SDS011;9573;50.948;11.600;2022-07-22T02:00:15;14.93;;;6.53;;
18881;SDS011;9573;50.948;11.600;2022-07-22T02:02:45;15.90;;;7.20;;
18881;SDS011;9573;50.948;11.600;2022-07-22T02:05:12;18.80;;;7.70;;
18881;SDS011;9573;50.948;11.600;2022-07-22T02:07:39;16.23;;;6.97;;
18881;SDS011;9573;50.948;11.600;2022-07-22T02:10:07;18.00;;;7.53;;
18881;SDS011;9573;50.948;11.600;2022-07-22T02:12:36;17.60;;;6.87;;
18881;SDS011;9573;50.948;11.600;2022-07-22T02:15:04;16.23;;;7.17;;
18881;SDS011;9573;50.948;11.600;2022-07-22T02:17:33;18.10;;;7.30;;
18881;SDS011;9573;50.948;11.600;2022-07-22T02:20:01;14.80;;;6.67;;
18881;SDS011;9573;50.948;11.600;2022-07-22T02:22:29;14.67;;;6.90;;
18881;SDS011;9573;50.948;11.600;2022-07-22T02:24:57;14.83;;;6.70;;
18881;SDS011;9573;50.948;11.600;2022-07-22T02:27:24;18.40;;;7.27;;
18881;SDS011;9573;50.948;11.600;2022-07-22T02:29:53;17.07;;;7.20;;
18881;SDS011;9573;50.948;11.600;2022-07-22T02:32:20;18.73;;;6.90;;
18881;SDS011;9573;50.948;11.600;2022-07-22T02:34:47;15.50;;;6.77;;
18881;SDS011;9573;50.948;11.600;2022-07-22T02:37:15;15.33;;;6.80;;
18881;SDS011;9573;50.948;11.600;2022-07-22T02:39:45;16.70;;;6.93;;
18881;SDS011;9573;50.948;11.600;2022-07-22T02:42:12;20.63;;;7.30;;
18881;SDS011;9573;50.948;11.600;2022-07-22T02:44:39;18.47;;;7.30;;
18881;SDS011;9573;50.948;11.600;2022-07-22T02:47:08;16.47;;;7.50;;
18881;SDS011;9573;50.948;11.600;2022-07-22T02:49:35;17.13;;;7.33;;
18881;SDS011;9573;50.948;11.600;2022-07-22T02:52:02;16.63;;;7.23;;
18881;SDS011;9573;50.948;11.600;2022-07-22T02:54:30;16.10;;;7.30;;
18881;SDS011;9573;50.948;11.600;2022-07-22T02:56:57;16.97;;;7.43;;
18881;SDS011;9573;50.948;11.600;2022-07-22T02:59:24;17.73;;;7.50;;
18881;SDS011;9573;50.948;11.600;2022-07-22T03:01:51;17.20;;;7.77;;
18881;SDS011;9573;50.948;11.600;2022-07-22T03:04:20;17.53;;;7.13;;
18881;SDS011;9573;50.948;11.600;2022-07-22T03:06:47;20.00;;;7.03;;
18881;SDS011;9573;50.948;11.600;2022-07-22T03:09:14;17.77;;;7.57;;
18881;SDS011;9573;50.948;11.600;2022-07-22T03:11:41;16.77;;;7.10;;
18881;SDS011;9573;50.948;11.600;2022-07-22T03:14:08;18.33;;;7.30;;
18881;SDS011;9573;50.948;11.600;2022-07-22T03:16:36;17.83;;;7.17;;
18881;SDS011;9573;50.948;11.600;2022-07-22T03:19:03;18.40;;;8.07;;
18881;SDS011;9573;50.948;11.600;2022-07-22T03:21:32;17.27;;;7.33;;
18881;SDS011;9573;50.948;11.600;2022-07-22T03:23:59;16.33;;;7.10;;
18881;SDS011;9573;50.948;11.600;2022-07-22T03:26:26;17.67;;;7.27;;
18881;SDS011;9573;50.948;11.600;2022-07-22T03:28:53;18.17;;;7.50;;
18881;SDS011;9573;50.948;11.600;2022-07-22T03:31:20;16.97;;;7.00;;
18881;SDS011;9573;50.948;11.600;2022-07-22T03:33:47;18.47;;;7.33;;
18881;SDS011;9573;50.948;11.600;2022-07-22T03:36:15;15.03;;;6.80;;
18881;SDS011;9573;50.948;11.600;2022-07-22T03:38:43;15.60;;;6.97;;
18881;SDS011;9573;50.948;11.600;2022-07-22T03:41:10;19.10;;;7.37;;
18881;SDS011;9573;50.948;11.600;2022-07-22T03:43:37;18.30;;;6.83;;
18881;SDS011;9573;50.948;11.600;2022-07-22T03:46:04;15.47;;;6.70;;
18881;SDS011;9573;50.948;11.600;2022-07-22T03:48:32;14.27;;;6.80;;
18881;SDS011;9573;50.948;11.600;2022-07-22T03:50:59;17.60;;;6.90;;
18881;SDS011;9573;50.948;11.600;2022-07-22T03:53:26;18.23;;;7.07;;
18881;SDS011;9573;50.948;11.600;2022-07-22T03:55:54;13.53;;;6.80;;
18881;SDS011;9573;50.948;11.600;2022-07-22T03:58:21;18.33;;;7.00;;
18881;SDS011;9573;50.948;11.600;2022-07-22T04:00:49;16.23;;;6.90;;
18881;SDS011;9573;50.948;11.600;2022-07-22T04:03:16;19.73;;;7.40;;
18881;SDS011;9573;50.948;11.600;2022-07-22T04:05:43;15.30;;;6.13;;
18881;SDS011;9573;50.948;11.600;2022-07-22T04:08:11;14.07;;;6.20;;
18881;SDS011;9573;50.948;11.600;2022-07-22T04:10:39;17.23;;;6.53;;
18881;SDS011;9573;50.948;11.600;2022-07-22T04:13:07;15.27;;;6.40;;
18881;SDS011;9573;50.948;11.600;2022-07-22T04:15:34;14.90;;;6.73;;
18881;SDS011;9573;50.948;11.600;2022-07-22T04:18:01;16.10;;;6.00;;
18881;SDS011;9573;50.948;11.600;2022-07-22T04:20:29;13.87;;;5.87;;
18881;SDS011;9573;50.948;11.600;2022-07-22T04:22:56;12.80;;;5.93;;
18881;SDS011;9573;50.948;11.600;2022-07-22T04:25:23;12.27;;;5.50;;
18881;SDS011;9573;50.948;11.600;2022-07-22T04:27:50;12.03;;;5.10;;
18881;SDS011;9573;50.948;11.600;2022-07-22T04:30:19;11.90;;;5.00;;
18881;SDS011;9573;50.948;11.600;2022-07-22T04:32:46;13.03;;;5.47;;
18881;SDS011;9573;50.948;11.600;2022-07-22T04:35:14;11.27;;;4.80;;
18881;SDS011;9573;50.948;11.600;2022-07-22T04:37:41;8.77;;;4.63;;
18881;SDS011;9573;50.948;11.600;2022-07-22T04:40:09;8.87;;;4.30;;
18881;SDS011;9573;50.948;11.600;2022-07-22T04:42:37;9.33;;;4.40;;
18881;SDS011;9573;50.948;11.600;2022-07-22T04:45:05;9.00;;;4.23;;
18881;SDS011;9573;50.948;11.600;2022-07-22T04:47:34;10.80;;;4.87;;
18881;SDS011;9573;50.948;11.600;2022-07-22T04:50:01;9.07;;;4.40;;
18881;SDS011;9573;50.948;11.600;2022-07-22T04:52:28;10.57;;;5.07;;
18881;SDS011;9573;50.948;11.600;2022-07-22T04:54:56;8.13;;;4.10;;
18881;SDS011;9573;50.948;11.600;2022-07-22T04:57:24;10.80;;;4.10;;
18881;SDS011;9573;50.948;11.600;2022-07-22T04:59:51;10.17;;;4.20;;
18881;SDS011;9573;50.948;11.600;2022-07-22T05:02:19;9.07;;;4.40;;
18881;SDS011;9573;50.948;11.600;2022-07-22T05:04:48;6.87;;;4.03;;
18881;SDS011;9573;50.948;11.600;2022-07-22T05:07:15;10.67;;;4.57;;
18881;SDS011;9573;50.948;11.600;2022-07-22T05:09:43;8.27;;;4.10;;
18881;SDS011;9573;50.948;11.600;2022-07-22T05:12:10;8.20;;;3.40;;
18881;SDS011;9573;50.948;11.600;2022-07-22T05:14:37;7.70;;;4.23;;
18881;SDS011;9573;50.948;11.600;2022-07-22T05:17:08;8.03;;;3.70;;
18881;SDS011;9573;50.948;11.600;2022-07-22T05:19:37;9.87;;;3.80;;
18881;SDS011;9573;50.948;11.600;2022-07-22T05:22:06;9.87;;;4.43;;
18881;SDS011;9573;50.948;11.600;2022-07-22T05:24:34;7.50;;;3.90;;
18881;SDS011;9573;50.948;11.600;2022-07-22T05:27:01;7.00;;;3.87;;
18881;SDS011;9573;50.948;11.600;2022-07-22T05:29:28;9.60;;;4.00;;
18881;SDS011;9573;50.948;11.600;2022-07-22T05:31:56;8.47;;;4.00;;
18881;SDS011;9573;50.948;11.600;2022-07-22T05:34:23;6.70;;;4.03;;
18881;SDS011;9573;50.948;11.600;2022-07-22T05:36:50;11.80;;;3.97;;
18881;SDS011;9573;50.948;11.600;2022-07-22T05:39:19;8.67;;;3.60;;
18881;SDS011;9573;50.948;11.600;2022-07-22T05:41:46;5.10;;;3.13;;
18881;SDS011;9573;50.948;11.600;2022-07-22T05:44:13;6.00;;;3.47;;
18881;SDS011;9573;50.948;11.600;2022-07-22T05:46:41;7.50;;;3.30;;
18881;SDS011;9573;50.948;11.600;2022-07-22T05:49:08;5.57;;;3.30;;
18881;SDS011;9573;50.948;11.600;2022-07-22T05:51:35;8.25;;;3.35;;
18881;SDS011;9573;50.948;11.600;2022-07-22T05:54:02;5.03;;;2.90;;
18881;SDS011;9573;50.948;11.600;2022-07-22T05:56:31;6.63;;;3.10;;
18881;SDS011;9573;50.948;11.600;2022-07-22T05:58:58;4.95;;;3.28;;
18881;SDS011;9573;50.948;11.600;2022-07-22T06:01:25;10.05;;;3.00;;
18881;SDS011;9573;50.948;11.600;2022-07-22T06:03:52;8.40;;;3.10;;
18881;SDS011;9573;50.948;11.600;2022-07-22T06:06:19;6.22;;;2.85;;
18881;SDS011;9573;50.948;11.600;2022-07-22T06:08:47;7.45;;;3.60;;
18881;SDS011;9573;50.948;11.600;2022-07-22T06:11:14;5.70;;;3.03;;
18881;SDS011;9573;50.948;11.600;2022-07-22T06:13:42;5.65;;;3.10;;
18881;SDS011;9573;50.948;11.600;2022-07-22T06:16:09;4.30;;;2.92;;
18881;SDS011;9573;50.948;11.600;2022-07-22T06:18:36;6.28;;;2.90;;
18881;SDS011;9573;50.948;11.600;2022-07-22T06:21:04;6.65;;;2.90;;
18881;SDS011;9573;50.948;11.600;2022-07-22T06:23:32;6.97;;;3.47;;
18881;SDS011;9573;50.948;11.600;2022-07-22T06:26:00;7.30;;;3.80;;
18881;SDS011;9573;50.948;11.600;2022-07-22T06:28:27;6.72;;;4.10;;
18881;SDS011;9573;50.948;11.600;2022-07-22T06:30:56;6.10;;;3.27;;
18881;SDS011;9573;50.948;11.600;2022-07-22T06:33:23;4.13;;;2.78;;
18881;SDS011;9573;50.948;11.600;2022-07-22T06:35:50;6.15;;;2.90;;
18881;SDS011;9573;50.948;11.600;2022-07-22T06:38:17;4.47;;;2.72;;
18881;SDS011;9573;50.948;11.600;2022-07-22T06:40:44;7.10;;;3.10;;
18881;SDS011;9573;50.948;11.600;2022-07-22T06:43:11;5.75;;;2.60;;
18881;SDS011;9573;50.948;11.600;2022-07-22T06:45:39;4.57;;;2.97;;
18881;SDS011;9573;50.948;11.600;2022-07-22T06:48:07;4.15;;;2.80;;
18881;SDS011;9573;50.948;11.600;2022-07-22T06:50:34;13.23;;;4.90;;
18881;SDS011;9573;50.948;11.600;2022-07-22T06:53:02;7.03;;;3.00;;
18881;SDS011;9573;50.948;11.600;2022-07-22T06:55:29;4.05;;;2.90;;
18881;SDS011;9573;50.948;11.600;2022-07-22T06:57:57;6.82;;;2.90;;
18881;SDS011;9573;50.948;11.600;2022-07-22T07:00:25;5.50;;;2.83;;
18881;SDS011;9573;50.948;11.600;2022-07-22T07:02:52;21.23;;;9.07;;
18881;SDS011;9573;50.948;11.600;2022-07-22T07:05:20;26.70;;;13.20;;
18881;SDS011;9573;50.948;11.600;2022-07-22T07:07:47;27.20;;;13.43;;
18881;SDS011;9573;50.948;11.600;2022-07-22T07:10:15;16.50;;;6.93;;
18881;SDS011;9573;50.948;11.600;2022-07-22T07:12:42;8.13;;;3.40;;
18881;SDS011;9573;50.948;11.600;2022-07-22T07:15:09;6.97;;;3.17;;
18881;SDS011;9573;50.948;11.600;2022-07-22T07:17:37;6.30;;;3.03;;
18881;SDS011;9573;50.948;11.600;2022-07-22T07:20:05;10.77;;;4.53;;
18881;SDS011;9573;50.948;11.600;2022-07-22T07:22:35;4.20;;;2.60;;
18881;SDS011;9573;50.948;11.600;2022-07-22T07:25:03;5.80;;;3.10;;
18881;SDS011;9573;50.948;11.600;2022-07-22T07:27:31;7.90;;;3.60;;
18881;SDS011;9573;50.948;11.600;2022-07-22T07:29:59;2.58;;;2.22;;
18881;SDS011;9573;50.948;11.600;2022-07-22T07:32:26;2.42;;;2.17;;
18881;SDS011;9573;50.948;11.600;2022-07-22T07:34:53;4.57;;;2.95;;
18881;SDS011;9573;50.948;11.600;2022-07-22T07:37:21;4.40;;;2.78;;
18881;SDS011;9573;50.948;11.600;2022-07-22T07:39:49;4.75;;;3.17;;
18881;SDS011;9573;50.948;11.600;2022-07-22T07:42:16;8.00;;;3.85;;
18881;SDS011;9573;50.948;11.600;2022-07-22T07:44:43;15.10;;;7.05;;
18881;SDS011;9573;50.948;11.600;2022-07-22T07:47:10;4.18;;;2.70;;
18881;SDS011;9573;50.948;11.600;2022-07-22T07:49:42;13.20;;;5.60;;
18881;SDS011;9573;50.948;11.600;2022-07-22T07:52:09;7.03;;;3.75;;
18881;SDS011;9573;50.948;11.600;2022-07-22T07:54:37;8.30;;;3.92;;
18881;SDS011;9573;50.948;11.600;2022-07-22T07:57:06;3.97;;;2.65;;
18881;SDS011;9573;50.948;11.600;2022-07-22T07:59:35;6.40;;;2.70;;
18881;SDS011;9573;50.948;11.600;2022-07-22T08:02:02;4.03;;;1.90;;
18881;SDS011;9573;50.948;11.600;2022-07-22T08:04:30;10.60;;;5.68;;
18881;SDS011;9573;50.948;11.600;2022-07-22T08:06:57;5.25;;;3.50;;
18881;SDS011;9573;50.948;11.600;2022-07-22T08:09:25;6.13;;;2.90;;
18881;SDS011;9573;50.948;11.600;2022-07-22T08:11:53;8.43;;;3.28;;
18881;SDS011;9573;50.948;11.600;2022-07-22T08:14:21;5.57;;;3.10;;
18881;SDS011;9573;50.948;11.600;2022-07-22T08:16:50;6.60;;;3.40;;
18881;SDS011;9573;50.948;11.600;2022-07-22T08:19:17;12.18;;;4.57;;
18881;SDS011;9573;50.948;11.600;2022-07-22T08:21:44;4.43;;;2.72;;
18881;SDS011;9573;50.948;11.600;2022-07-22T08:24:11;6.53;;;2.80;;
18881;SDS011;9573;50.948;11.600;2022-07-22T08:26:39;3.08;;;2.33;;
18881;SDS011;9573;50.948;11.600;2022-07-22T08:29:06;3.72;;;2.50;;
18881;SDS011;9573;50.948;11.600;2022-07-22T08:31:36;4.28;;;2.97;;
18881;SDS011;9573;50.948;11.600;2022-07-22T08:34:04;9.77;;;2.90;;
18881;SDS011;9573;50.948;11.600;2022-07-22T08:36:32;12.57;;;4.95;;
18881;SDS011;9573;50.948;11.600;2022-07-22T08:38:59;3.83;;;2.67;;
18881;SDS011;9573;50.948;11.600;2022-07-22T08:41:26;5.93;;;2.88;;
18881;SDS011;9573;50.948;11.600;2022-07-22T08:43:53;5.97;;;3.35;;
18881;SDS011;9573;50.948;11.600;2022-07-22T08:46:22;7.13;;;4.28;;
18881;SDS011;9573;50.948;11.600;2022-07-22T08:48:50;14.15;;;5.43;;
18881;SDS011;9573;50.948;11.600;2022-07-22T08:51:20;5.53;;;3.08;;
18881;SDS011;9573;50.948;11.600;2022-07-22T08:53:47;7.53;;;3.28;;
18881;SDS011;9573;50.948;11.600;2022-07-22T08:56:14;7.85;;;4.10;;
18881;SDS011;9573;50.948;11.600;2022-07-22T08:58:41;8.35;;;2.83;;
18881;SDS011;9573;50.948;11.600;2022-07-22T09:01:09;4.72;;;2.38;;
18881;SDS011;9573;50.948;11.600;2022-07-22T09:03:45;7.70;;;3.08;;
18881;SDS011;9573;50.948;11.600;2022-07-22T09:06:16;5.05;;;2.25;;
18881;SDS011;9573;50.948;11.600;2022-07-22T09:08:51;6.28;;;3.30;;
18881;SDS011;9573;50.948;11.600;2022-07-22T09:11:20;4.65;;;3.08;;
18881;SDS011;9573;50.948;11.600;2022-07-22T09:13:53;6.28;;;3.00;;
18881;SDS011;9573;50.948;11.600;2022-07-22T09:19:08;10.43;;;4.00;;
18881;SDS011;9573;50.948;11.600;2022-07-22T09:21:44;5.57;;;3.03;;
18881;SDS011;9573;50.948;11.600;2022-07-22T09:24:25;7.18;;;3.30;;
18881;SDS011;9573;50.948;11.600;2022-07-22T09:26:55;9.13;;;4.15;;
18881;SDS011;9573;50.948;11.600;2022-07-22T09:29:22;6.75;;;2.83;;
18881;SDS011;9573;50.948;11.600;2022-07-22T09:31:50;3.90;;;2.42;;
18881;SDS011;9573;50.948;11.600;2022-07-22T09:34:25;2.90;;;2.28;;
18881;SDS011;9573;50.948;11.600;2022-07-22T09:36:55;12.32;;;2.75;;
18881;SDS011;9573;50.948;11.600;2022-07-22T09:39:26;9.95;;;2.40;;
18881;SDS011;9573;50.948;11.600;2022-07-22T09:41:57;3.95;;;2.30;;
18881;SDS011;9573;50.948;11.600;2022-07-22T09:44:25;2.42;;;2.08;;
18881;SDS011;9573;50.948;11.600;2022-07-22T09:46:52;3.42;;;2.05;;
18881;SDS011;9573;50.948;11.600;2022-07-22T09:49:29;16.98;;;6.93;;
18881;SDS011;9573;50.948;11.600;2022-07-22T09:52:00;22.83;;;10.93;;
18881;SDS011;9573;50.948;11.600;2022-07-22T09:54:28;5.35;;;2.90;;
18881;SDS011;9573;50.948;11.600;2022-07-22T09:56:55;7.53;;;3.75;;
18881;SDS011;9573;50.948;11.600;2022-07-22T09:59:23;6.55;;;2.47;;
18881;SDS011;9573;50.948;11.600;2022-07-22T10:01:53;2.13;;;2.00;;
18881;SDS011;9573;50.948;11.600;2022-07-22T10:04:24;7.50;;;2.13;;
18881;SDS011;9573;50.948;11.600;2022-07-22T10:06:57;5.35;;;2.10;;
18881;SDS011;9573;50.948;11.600;2022-07-22T10:09:27;5.15;;;2.40;;
18881;SDS011;9573;50.948;11.600;2022-07-22T10:11:54;4.53;;;2.40;;
18881;SDS011;9573;50.948;11.600;2022-07-22T10:14:22;3.30;;;2.35;;
18881;SDS011;9573;50.948;11.600;2022-07-22T10:16:50;7.80;;;2.08;;
18881;SDS011;9573;50.948;11.600;2022-07-22T10:19:17;3.80;;;1.90;;
18881;SDS011;9573;50.948;11.600;2022-07-22T10:21:45;5.90;;;2.03;;
18881;SDS011;9573;50.948;11.600;2022-07-22T10:24:14;3.17;;;2.05;;
18881;SDS011;9573;50.948;11.600;2022-07-22T10:26:46;3.78;;;2.00;;
18881;SDS011;9573;50.948;11.600;2022-07-22T10:29:26;8.52;;;4.38;;
18881;SDS011;9573;50.948;11.600;2022-07-22T10:37:54;5.40;;;2.30;;
18881;SDS011;9573;50.948;11.600;2022-07-22T10:40:27;3.20;;;2.38;;
18881;SDS011;9573;50.948;11.600;2022-07-22T10:43:03;2.30;;;2.10;;
18881;SDS011;9573;50.948;11.600;2022-07-22T10:45:41;8.32;;;2.15;;
18881;SDS011;9573;50.948;11.600;2022-07-22T10:48:14;5.30;;;2.40;;
18881;SDS011;9573;50.948;11.600;2022-07-22T10:50:49;4.15;;;2.28;;
18881;SDS011;9573;50.948;11.600;2022-07-22T10:53:21;4.05;;;2.30;;
18881;SDS011;9573;50.948;11.600;2022-07-22T10:55:59;6.22;;;2.40;;
18881;SDS011;9573;50.948;11.600;2022-07-22T10:58:39;4.65;;;2.50;;
18881;SDS011;9573;50.948;11.600;2022-07-22T11:01:12;5.47;;;2.55;;
18881;SDS011;9573;50.948;11.600;2022-07-22T11:03:44;2.88;;;2.25;;
18881;SDS011;9573;50.948;11.600;2022-07-22T11:06:14;5.95;;;2.38;;
18881;SDS011;9573;50.948;11.600;2022-07-22T11:08:45;4.85;;;2.53;;
18881;SDS011;9573;50.948;11.600;2022-07-22T11:11:16;4.85;;;2.50;;
18881;SDS011;9573;50.948;11.600;2022-07-22T11:13:44;3.83;;;2.30;;
18881;SDS011;9573;50.948;11.600;2022-07-22T11:16:16;3.83;;;2.70;;
18881;SDS011;9573;50.948;11.600;2022-07-22T11:18:46;3.60;;;2.70;;
18881;SDS011;9573;50.948;11.600;2022-07-22T11:21:16;4.97;;;2.42;;
18881;SDS011;9573;50.948;11.600;2022-07-22T11:23:45;4.40;;;2.90;;
18881;SDS011;9573;50.948;11.600;2022-07-22T11:26:17;5.65;;;2.60;;
18881;SDS011;9573;50.948;11.600;2022-07-22T11:28:46;6.38;;;2.53;;
18881;SDS011;9573;50.948;11.600;2022-07-22T11:31:14;3.42;;;2.60;;
18881;SDS011;9573;50.948;11.600;2022-07-22T11:33:44;6.15;;;2.45;;
18881;SDS011;9573;50.948;11.600;2022-07-22T11:36:11;4.13;;;2.60;;
18881;SDS011;9573;50.948;11.600;2022-07-22T11:38:43;6.45;;;2.80;;
18881;SDS011;9573;50.948;11.600;2022-07-22T11:41:17;6.07;;;2.80;;
18881;SDS011;9573;50.948;11.600;2022-07-22T11:43:45;5.47;;;2.78;;
18881;SDS011;9573;50.948;11.600;2022-07-22T11:46:15;3.97;;;2.90;;
18881;SDS011;9573;50.948;11.600;2022-07-22T11:48:44;6.75;;;3.08;;
18881;SDS011;9573;50.948;11.600;2022-07-22T11:51:12;6.03;;;2.67;;
18881;SDS011;9573;50.948;11.600;2022-07-22T11:53:41;3.17;;;2.60;;
18881;SDS011;9573;50.948;11.600;2022-07-22T11:56:09;4.97;;;2.80;;
18881;SDS011;9573;50.948;11.600;2022-07-22T11:58:40;3.70;;;2.78;;
18881;SDS011;9573;50.948;11.600;2022-07-22T12:01:10;3.38;;;2.70;;
18881;SDS011;9573;50.948;11.600;2022-07-22T12:03:40;9.18;;;3.08;;
18881;SDS011;9573;50.948;11.600;2022-07-22T12:06:11;5.70;;;3.30;;
18881;SDS011;9573;50.948;11.600;2022-07-22T12:08:40;6.82;;;3.03;;
18881;SDS011;9573;50.948;11.600;2022-07-22T12:11:11;5.13;;;3.05;;
18881;SDS011;9573;50.948;11.600;2022-07-22T12:13:43;4.93;;;2.95;;
18881;SDS011;9573;50.948;11.600;2022-07-22T12:16:16;5.43;;;2.97;;
18881;SDS011;9573;50.948;11.600;2022-07-22T12:18:50;5.55;;;2.78;;
18881;SDS011;9573;50.948;11.600;2022-07-22T12:21:20;5.72;;;2.95;;
18881;SDS011;9573;50.948;11.600;2022-07-22T12:23:52;5.88;;;3.03;;
18881;SDS011;9573;50.948;11.600;2022-07-22T12:26:37;6.90;;;2.92;;
18881;SDS011;9573;50.948;11.600;2022-07-22T12:29:16;4.90;;;3.10;;
18881;SDS011;9573;50.948;11.600;2022-07-22T12:31:47;4.60;;;2.95;;
18881;SDS011;9573;50.948;11.600;2022-07-22T12:34:17;5.68;;;3.13;;
18881;SDS011;9573;50.948;11.600;2022-07-22T12:36:55;6.53;;;3.00;;
18881;SDS011;9573;50.948;11.600;2022-07-22T12:39:28;5.40;;;2.83;;
18881;SDS011;9573;50.948;11.600;2022-07-22T12:41:55;4.97;;;3.28;;
18881;SDS011;9573;50.948;11.600;2022-07-22T12:44:25;6.57;;;2.88;;
18881;SDS011;9573;50.948;11.600;2022-07-22T12:46:54;7.28;;;3.33;;
18881;SDS011;9573;50.948;11.600;2022-07-22T12:49:23;5.75;;;3.17;;
18881;SDS011;9573;50.948;11.600;2022-07-22T12:52:10;4.70;;;3.10;;
18881;SDS011;9573;50.948;11.600;2022-07-22T12:54:39;6.90;;;3.40;;
18881;SDS011;9573;50.948;11.600;2022-07-22T12:57:07;7.20;;;3.47;;
18881;SDS011;9573;50.948;11.600;2022-07-22T12:59:37;6.72;;;2.95;;
18881;SDS011;9573;50.948;11.600;2022-07-22T13:02:04;4.85;;;2.90;;
18881;SDS011;9573;50.948;11.600;2022-07-22T13:04:31;10.40;;;2.90;;
18881;SDS011;9573;50.948;11.600;2022-07-22T13:06:58;7.15;;;3.30;;
18881;SDS011;9573;50.948;11.600;2022-07-22T13:09:25;7.95;;;3.53;;
18881;SDS011;9573;50.948;11.600;2022-07-22T13:11:52;4.22;;;3.28;;
18881;SDS011;9573;50.948;11.600;2022-07-22T13:14:20;7.82;;;3.60;;
18881;SDS011;9573;50.948;11.600;2022-07-22T13:16:48;7.68;;;3.33;;
18881;SDS011;9573;50.948;11.600;2022-07-22T13:19:15;8.48;;;3.42;;
18881;SDS011;9573;50.948;11.600;2022-07-22T13:21:42;7.65;;;3.40;;
18881;SDS011;9573;50.948;11.600;2022-07-22T13:24:10;7.22;;;3.30;;
18881;SDS011;9573;50.948;11.600;2022-07-22T13:26:37;6.90;;;3.60;;
18881;SDS011;9573;50.948;11.600;2022-07-22T13:29:05;8.88;;;3.60;;
18881;SDS011;9573;50.948;11.600;2022-07-22T13:31:32;6.88;;;3.63;;
18881;SDS011;9573;50.948;11.600;2022-07-22T13:34:00;6.68;;;3.40;;
18881;SDS011;9573;50.948;11.600;2022-07-22T13:36:28;9.77;;;3.80;;
18881;SDS011;9573;50.948;11.600;2022-07-22T13:38:57;10.55;;;3.80;;
18881;SDS011;9573;50.948;11.600;2022-07-22T13:41:24;6.70;;;3.45;;
18881;SDS011;9573;50.948;11.600;2022-07-22T13:43:52;10.27;;;4.03;;
18881;SDS011;9573;50.948;11.600;2022-07-22T13:46:19;11.05;;;3.80;;
18881;SDS011;9573;50.948;11.600;2022-07-22T13:48:46;7.88;;;3.42;;
18881;SDS011;9573;50.948;11.600;2022-07-22T13:51:14;7.68;;;3.30;;
18881;SDS011;9573;50.948;11.600;2022-07-22T13:53:42;11.13;;;3.67;;
18881;SDS011;9573;50.948;11.600;2022-07-22T13:56:09;9.55;;;4.05;;
18881;SDS011;9573;50.948;11.600;2022-07-22T13:58:37;14.50;;;3.90;;
18881;SDS011;9573;50.948;11.600;2022-07-22T14:01:05;10.35;;;3.75;;
18881;SDS011;9573;50.948;11.600;2022-07-22T14:03:34;8.93;;;3.70;;
18881;SDS011;9573;50.948;11.600;2022-07-22T14:06:02;9.38;;;3.55;;
18881;SDS011;9573;50.948;11.600;2022-07-22T14:08:32;10.10;;;3.70;;
18881;SDS011;9573;50.948;11.600;2022-07-22T14:10:59;8.88;;;3.60;;
18881;SDS011;9573;50.948;11.600;2022-07-22T14:13:26;6.15;;;3.60;;
18881;SDS011;9573;50.948;11.600;2022-07-22T14:15:53;10.68;;;3.60;;
18881;SDS011;9573;50.948;11.600;2022-07-22T14:18:21;8.20;;;3.65;;
18881;SDS011;9573;50.948;11.600;2022-07-22T14:20:48;7.28;;;3.70;;
18881;SDS011;9573;50.948;11.600;2022-07-22T14:23:16;8.77;;;3.70;;
18881;SDS011;9573;50.948;11.600;2022-07-22T14:25:49;11.95;;;3.72;;
18881;SDS011;9573;50.948;11.600;2022-07-22T14:28:17;7.35;;;3.72;;
18881;SDS011;9573;50.948;11.600;2022-07-22T14:30:44;10.93;;;3.60;;
18881;SDS011;9573;50.948;11.600;2022-07-22T14:33:11;9.90;;;3.90;;
18881;SDS011;9573;50.948;11.600;2022-07-22T14:35:38;13.07;;;3.90;;
18881;SDS011;9573;50.948;11.600;2022-07-22T14:38:06;8.57;;;3.55;;
18881;SDS011;9573;50.948;11.600;2022-07-22T14:40:33;8.80;;;3.60;;
18881;SDS011;9573;50.948;11.600;2022-07-22T14:43:01;10.15;;;3.70;;
18881;SDS011;9573;50.948;11.600;2022-07-22T14:45:31;11.02;;;4.15;;
18881;SDS011;9573;50.948;11.600;2022-07-22T14:47:59;9.13;;;3.70;;
18881;SDS011;9573;50.948;11.600;2022-07-22T14:50:26;11.43;;;4.05;;
18881;SDS011;9573;50.948;11.600;2022-07-22T14:52:53;9.52;;;3.70;;
18881;SDS011;9573;50.948;11.600;2022-07-22T14:55:23;10.00;;;3.70;;
18881;SDS011;9573;50.948;11.600;2022-07-22T14:57:51;6.78;;;3.60;;
18881;SDS011;9573;50.948;11.600;2022-07-22T15:00:20;8.82;;;3.80;;
18881;SDS011;9573;50.948;11.600;2022-07-22T15:02:47;12.10;;;3.90;;